Time;durP1;ratioP1;P1;durP2;ratioP2;P2;SDS_P1;SDS_P2;PMS_P1;PMS_P2;Temp;Humidity;BMP_temperature;BMP_pressure;BME280_temperature;BME280_humidity;BME280_pressure;Samples;Min_cycle;Max_cycle;Signal;HPM_P1;HPM_P2
2023/04/14 00:01:20;;;;;;;2.33;1.53;;;6.10;99.90;;;;;;5050846;28;20487;-69
2023/04/14 00:03:45;;;;;;;4.80;1.80;;;6.00;99.90;;;;;;5050889;28;20261;-69
2023/04/14 00:06:11;;;;;;;2.40;1.23;;;6.00;99.90;;;;;;5052161;28;20178;-69
2023/04/14 00:08:36;;;;;;;2.57;1.40;;;5.90;99.90;;;;;;5051699;28;20223;-69
2023/04/14 00:11:02;;;;;;;3.53;1.27;;;5.90;99.90;;;;;;5051999;28;20216;-69
2023/04/14 00:13:27;;;;;;;2.13;1.40;;;5.90;99.90;;;;;;5051810;28;20673;-70
2023/04/14 00:15:54;;;;;;;3.57;1.37;;;5.90;99.90;;;;;;5050650;28;20213;-70
2023/04/14 00:18:19;;;;;;;2.80;1.13;;;5.90;99.90;;;;;;5051629;28;20527;-70
2023/04/14 00:20:46;;;;;;;1.70;0.93;;;5.80;99.90;;;;;;5051938;28;20393;-69
2023/04/14 00:23:12;;;;;;;1.20;1.10;;;5.80;99.90;;;;;;5051861;28;20237;-69
2023/04/14 00:25:38;;;;;;;4.10;0.90;;;5.80;99.90;;;;;;5051455;28;20414;-69
2023/04/14 00:28:03;;;;;;;2.47;0.93;;;5.80;99.90;;;;;;5049569;28;20661;-69
2023/04/14 00:30:29;;;;;;;2.80;1.40;;;5.80;99.90;;;;;;5051790;28;20580;-69
2023/04/14 00:32:54;;;;;;;1.23;1.00;;;5.70;99.90;;;;;;5050320;28;20584;-68
2023/04/14 00:35:20;;;;;;;2.70;1.47;;;5.70;99.90;;;;;;5051631;28;20194;-68
2023/04/14 00:37:45;;;;;;;2.23;0.83;;;5.70;99.90;;;;;;5051478;28;20174;-69
2023/04/14 00:40:11;;;;;;;1.73;1.40;;;5.70;99.90;;;;;;5051796;28;20189;-69
2023/04/14 00:42:47;;;;;;;1.30;0.90;;;5.70;99.90;;;;;;5051866;28;20238;-69
2023/04/14 00:45:13;;;;;;;9.43;1.67;;;5.70;99.90;;;;;;5051256;28;20182;-70
2023/04/14 00:47:41;;;;;;;1.93;1.30;;;5.70;99.90;;;;;;5051397;28;20781;-69
2023/04/14 00:50:10;;;;;;;1.73;1.50;;;5.60;99.90;;;;;;5051447;28;20504;-69
2023/04/14 00:52:37;;;;;;;2.63;1.37;;;5.60;99.90;;;;;;5055614;28;20404;-69
2023/04/14 00:55:04;;;;;;;1.90;1.07;;;5.50;99.90;;;;;;5055426;28;20455;-69
2023/04/14 00:57:30;;;;;;;2.00;0.97;;;5.40;99.90;;;;;;5055176;28;20480;-68
2023/04/14 00:59:58;;;;;;;2.33;1.07;;;5.30;99.90;;;;;;5055430;28;20506;-68
2023/04/14 01:02:24;;;;;;;2.23;1.17;;;5.20;99.90;;;;;;5054152;28;20546;-68
2023/04/14 01:04:50;;;;;;;5.57;1.33;;;5.20;99.90;;;;;;5053975;28;20433;-69
2023/04/14 01:07:21;;;;;;;2.20;1.23;;;5.10;99.90;;;;;;5055113;28;20909;-70
2023/04/14 01:09:46;;;;;;;1.40;1.17;;;5.10;99.90;;;;;;5055564;28;20475;-70
2023/04/14 01:12:22;;;;;;;1.83;1.00;;;5.00;99.90;;;;;;5053988;28;20401;-70
2023/04/14 01:15:11;;;;;;;1.80;0.97;;;5.00;99.90;;;;;;5054916;28;20222;-70
2023/04/14 01:17:43;;;;;;;1.87;1.30;;;4.90;99.90;;;;;;5054475;28;20448;-69
2023/04/14 01:20:17;;;;;;;1.70;0.93;;;4.90;99.90;;;;;;5054605;28;20397;-70
2023/04/14 01:22:57;;;;;;;1.63;0.87;;;4.80;99.90;;;;;;5055061;28;20419;-68
2023/04/14 01:25:54;;;;;;;1.37;1.20;;;4.80;99.90;;;;;;5054571;28;20847;-69
2023/04/14 01:28:47;;;;;;;1.03;0.80;;;4.80;99.90;;;;;;5053405;28;20419;-69
2023/04/14 01:31:44;;;;;;;1.40;1.13;;;4.80;99.90;;;;;;5054770;28;20902;-69
2023/04/14 01:34:19;;;;;;;1.53;1.00;;;4.80;99.90;;;;;;5053209;28;20526;-68
2023/04/14 01:37:02;;;;;;;1.43;1.10;;;4.70;99.90;;;;;;5053397;28;20413;-68
2023/04/14 01:39:34;;;;;;;5.13;1.70;;;4.60;99.90;;;;;;5054764;28;20408;-68
2023/04/14 01:42:05;;;;;;;3.20;1.20;;;4.60;99.90;;;;;;5054572;28;20899;-69
2023/04/14 01:44:32;;;;;;;4.07;1.90;;;4.50;99.90;;;;;;5053576;28;20504;-69
2023/04/14 01:47:02;;;;;;;2.17;1.27;;;4.50;99.90;;;;;;5053342;28;20448;-69
2023/04/14 01:49:30;;;;;;;3.80;0.97;;;4.60;99.90;;;;;;5052996;28;20483;-69
2023/04/14 01:51:56;;;;;;;2.10;1.03;;;4.60;99.90;;;;;;5053160;28;20409;-68
2023/04/14 01:54:22;;;;;;;4.93;2.20;;;4.60;99.90;;;;;;5053012;28;20453;-68
2023/04/14 01:56:50;;;;;;;1.47;1.30;;;4.60;99.90;;;;;;5054413;28;20167;-69
2023/04/14 01:59:17;;;;;;;1.60;1.40;;;4.50;99.90;;;;;;5054270;28;20493;-69
2023/04/14 02:01:45;;;;;;;5.20;1.60;;;4.50;99.90;;;;;;5052162;28;20803;-69
2023/04/14 02:04:12;;;;;;;6.10;1.77;;;4.40;99.90;;;;;;5033460;28;20426;-69
2023/04/14 02:06:38;;;;;;;3.07;1.63;;;4.40;99.90;;;;;;5034354;28;20414;-69
2023/04/14 02:09:09;;;;;;;3.03;0.90;;;4.30;99.90;;;;;;5032370;28;20422;-68
2023/04/14 02:11:36;;;;;;;8.13;1.40;;;4.30;99.90;;;;;;5033903;28;20485;-69
2023/04/14 02:14:03;;;;;;;1.63;1.47;;;4.40;99.90;;;;;;5033876;28;20462;-68
2023/04/14 02:16:29;;;;;;;1.97;1.10;;;4.40;99.90;;;;;;5034224;28;20803;-69
2023/04/14 02:18:54;;;;;;;2.80;1.47;;;4.40;99.90;;;;;;5034057;28;20449;-69
2023/04/14 02:21:23;;;;;;;3.10;1.50;;;4.30;99.90;;;;;;5033959;28;20703;-69
2023/04/14 02:23:48;;;;;;;1.60;0.80;;;4.40;99.90;;;;;;5033884;28;20823;-69
2023/04/14 02:26:17;;;;;;;2.53;1.17;;;4.30;99.90;;;;;;5033829;28;20442;-68
2023/04/14 02:29:11;;;;;;;2.93;1.90;;;4.30;99.90;;;;;;5033648;28;20531;-69
2023/04/14 02:31:43;;;;;;;1.10;1.00;;;4.30;99.90;;;;;;5030375;28;20406;-69
2023/04/14 02:34:11;;;;;;;4.00;1.70;;;4.20;99.90;;;;;;5033766;28;20528;-70
2023/04/14 02:36:52;;;;;;;3.53;2.17;;;4.20;99.90;;;;;;5033634;28;20785;-68
2023/04/14 02:39:29;;;;;;;1.37;1.27;;;4.10;99.90;;;;;;5033672;28;20390;-69
2023/04/14 02:42:04;;;;;;;4.40;1.57;;;4.10;99.90;;;;;;5033651;28;20398;-69
2023/04/14 02:44:34;;;;;;;1.77;0.90;;;4.00;99.90;;;;;;5033543;28;20838;-68
2023/04/14 02:47:06;;;;;;;0.90;0.80;;;4.00;99.90;;;;;;5032610;28;20410;-69
2023/04/14 02:49:35;;;;;;;2.30;1.90;;;4.00;99.90;;;;;;5033503;28;20395;-68
2023/04/14 02:52:06;;;;;;;4.07;1.87;;;3.90;99.90;;;;;;5033262;28;20410;-69
2023/04/14 02:54:37;;;;;;;1.90;1.23;;;3.90;99.90;;;;;;5032860;28;20454;-70
2023/04/14 02:57:04;;;;;;;3.97;1.90;;;3.90;99.90;;;;;;5033144;28;20429;-69
2023/04/14 02:59:31;;;;;;;1.57;1.23;;;3.80;99.90;;;;;;5033345;28;20477;-68
2023/04/14 03:02:04;;;;;;;3.10;1.60;;;3.80;99.90;;;;;;5033533;28;20985;-68
2023/04/14 03:04:35;;;;;;;3.80;1.40;;;3.80;99.90;;;;;;5033178;28;20414;-69
2023/04/14 03:07:01;;;;;;;2.60;1.87;;;3.90;99.90;;;;;;5032839;28;20402;-70
2023/04/14 03:09:29;;;;;;;4.60;1.80;;;4.00;99.90;;;;;;5033149;28;20413;-69
2023/04/14 03:11:55;;;;;;;2.13;1.73;;;4.00;99.90;;;;;;5033086;28;20489;-68
2023/04/14 03:14:21;;;;;;;1.67;1.57;;;4.00;99.90;;;;;;5031911;28;20470;-69
2023/04/14 03:16:50;;;;;;;5.43;1.70;;;4.00;99.90;;;;;;5032941;28;20423;-69
2023/04/14 03:19:19;;;;;;;2.40;1.20;;;4.00;99.90;;;;;;5032967;28;20398;-69
2023/04/14 03:21:45;;;;;;;4.60;1.53;;;3.90;99.90;;;;;;5032131;28;20401;-68
2023/04/14 03:24:15;;;;;;;2.70;1.30;;;3.80;99.90;;;;;;5031193;28;20438;-68
2023/04/14 03:26:43;;;;;;;2.40;1.57;;;3.80;99.90;;;;;;5032756;28;20406;-69
2023/04/14 03:29:09;;;;;;;2.67;1.20;;;3.80;99.90;;;;;;5032380;28;20411;-68
2023/04/14 03:31:36;;;;;;;1.80;1.10;;;3.80;99.90;;;;;;5032487;28;20429;-69
2023/04/14 03:34:05;;;;;;;2.03;1.20;;;3.80;99.90;;;;;;5032494;28;20481;-68
2023/04/14 03:36:31;;;;;;;3.33;1.23;;;3.80;99.90;;;;;;5032621;28;20865;-68
2023/04/14 03:39:00;;;;;;;1.30;1.00;;;3.70;99.90;;;;;;5032300;28;20441;-68
2023/04/14 03:41:28;;;;;;;4.97;0.97;;;3.70;99.90;;;;;;5032506;28;20407;-68
2023/04/14 03:43:55;;;;;;;1.70;1.33;;;3.70;99.90;;;;;;5032550;28;20893;-68
2023/04/14 03:46:25;;;;;;;1.20;1.00;;;3.60;99.90;;;;;;5032427;28;20497;-68
2023/04/14 03:48:52;;;;;;;3.00;1.80;;;3.60;99.90;;;;;;5032052;28;20478;-69
2023/04/14 03:51:21;;;;;;;2.07;1.33;;;3.60;99.90;;;;;;5032317;28;20398;-68
2023/04/14 03:53:48;;;;;;;1.30;1.20;;;3.50;99.90;;;;;;5032136;28;20459;-69
2023/04/14 03:56:16;;;;;;;1.40;1.20;;;3.40;99.90;;;;;;5031018;28;20410;-69
2023/04/14 03:58:46;;;;;;;2.50;2.07;;;3.40;99.90;;;;;;5031945;28;20403;-70
2023/04/14 04:01:13;;;;;;;2.17;1.57;;;3.30;99.90;;;;;;5032217;28;20405;-70
2023/04/14 04:03:39;;;;;;;2.90;1.47;;;3.30;99.90;;;;;;5031935;28;20402;-71
2023/04/14 04:06:06;;;;;;;2.80;1.77;;;3.40;99.90;;;;;;5031769;28;20402;-70
2023/04/14 04:08:33;;;;;;;2.40;1.70;;;3.40;99.90;;;;;;5030441;28;20450;-70
2023/04/14 04:11:00;;;;;;;1.30;1.20;;;3.40;99.90;;;;;;5032105;28;20414;-69
2023/04/14 04:13:26;;;;;;;2.47;1.37;;;3.40;99.90;;;;;;5031642;28;20480;-70
2023/04/14 04:15:54;;;;;;;4.53;1.50;;;3.40;99.90;;;;;;5031931;28;20454;-69
2023/04/14 04:18:23;;;;;;;2.07;1.30;;;3.40;99.90;;;;;;5031708;28;20464;-70
2023/04/14 04:20:49;;;;;;;3.43;1.33;;;3.40;99.90;;;;;;5031964;28;20456;-70
2023/04/14 04:23:17;;;;;;;2.03;1.63;;;3.40;99.90;;;;;;5031896;28;20395;-70
2023/04/14 04:25:43;;;;;;;1.77;1.10;;;3.40;99.90;;;;;;5030470;28;20439;-70
2023/04/14 04:28:09;;;;;;;1.57;1.00;;;3.40;99.90;;;;;;5031605;28;20445;-69
2023/04/14 04:30:39;;;;;;;3.90;1.10;;;3.30;99.90;;;;;;5031814;28;20819;-70
2023/04/14 04:33:05;;;;;;;6.50;1.63;;;3.30;99.90;;;;;;5032067;28;20164;-70
2023/04/14 04:35:32;;;;;;;3.70;1.60;;;3.30;99.90;;;;;;5031573;28;20862;-70
2023/04/14 04:38:00;;;;;;;2.47;1.70;;;3.30;99.90;;;;;;5031356;28;20918;-69
2023/04/14 04:40:26;;;;;;;3.00;1.80;;;3.30;99.90;;;;;;5031780;28;20414;-69
2023/04/14 04:42:51;;;;;;;1.93;1.47;;;3.30;99.90;;;;;;5031395;28;20402;-69
2023/04/14 04:45:49;;;;;;;2.73;1.70;;;3.30;99.90;;;;;;5031581;28;20245;-70
2023/04/14 04:48:14;;;;;;;1.87;1.77;;;3.30;99.90;;;;;;5031644;28;20211;-69
2023/04/14 04:50:41;;;;;;;2.83;1.27;;;3.30;99.90;;;;;;5031683;28;20776;-68
2023/04/14 04:53:06;;;;;;;4.67;1.90;;;3.30;99.90;;;;;;5031762;28;20804;-68
2023/04/14 04:55:32;;;;;;;3.53;1.60;;;3.40;99.90;;;;;;5031471;28;20537;-68
2023/04/14 04:57:57;;;;;;;3.63;1.60;;;3.40;99.90;;;;;;5031435;28;20245;-68
2023/04/14 05:00:24;;;;;;;3.70;2.10;;;3.40;99.90;;;;;;5031586;28;20186;-69
2023/04/14 05:02:50;;;;;;;1.67;1.47;;;3.40;99.90;;;;;;5031619;28;20633;-69
2023/04/14 05:05:16;;;;;;;2.83;1.70;;;3.40;99.90;;;;;;5031374;28;20422;-69
2023/04/14 05:07:41;;;;;;;2.13;1.63;;;3.30;99.90;;;;;;5030057;28;20222;-69
2023/04/14 05:10:07;;;;;;;6.50;1.57;;;3.30;99.90;;;;;;5031500;28;20514;-70
2023/04/14 05:12:33;;;;;;;2.83;2.03;;;3.40;99.90;;;;;;5031310;28;20178;-69
2023/04/14 05:14:58;;;;;;;2.13;1.80;;;3.60;99.90;;;;;;5031648;28;20537;-70
2023/04/14 05:17:24;;;;;;;4.63;1.50;;;3.60;99.90;;;;;;5029907;28;20210;-69
2023/04/14 05:19:49;;;;;;;2.27;1.57;;;3.80;99.90;;;;;;5031458;28;20168;-69
2023/04/14 05:22:15;;;;;;;1.53;1.43;;;4.10;99.90;;;;;;5031384;28;20167;-70
2023/04/14 05:24:40;;;;;;;3.90;1.60;;;4.30;99.90;;;;;;5031348;28;20195;-70
2023/04/14 05:27:06;;;;;;;1.60;1.20;;;4.60;99.90;;;;;;5030954;28;20641;-69
2023/04/14 05:29:31;;;;;;;4.83;1.70;;;4.90;99.90;;;;;;5031322;28;20183;-69
2023/04/14 05:31:57;;;;;;;1.80;1.57;;;5.00;99.90;;;;;;5031288;28;20164;-70
2023/04/14 05:34:22;;;;;;;2.33;1.80;;;5.30;99.90;;;;;;5031302;28;20617;-69
2023/04/14 05:36:48;;;;;;;4.17;1.80;;;5.60;99.90;;;;;;5031173;28;20707;-69
2023/04/14 05:39:13;;;;;;;7.30;2.10;;;5.90;99.90;;;;;;5032955;28;20172;-70
2023/04/14 05:41:39;;;;;;;8.30;1.90;;;6.30;99.90;;;;;;5034775;28;20175;-70
2023/04/14 05:44:04;;;;;;;2.10;1.67;;;7.00;99.90;;;;;;5034707;28;20198;-70
2023/04/14 05:46:30;;;;;;;3.63;1.63;;;7.80;99.90;;;;;;5034278;28;20222;-69
2023/04/14 05:48:56;;;;;;;3.57;1.70;;;8.60;99.90;;;;;;5034248;28;20179;-71
2023/04/14 05:51:22;;;;;;;3.23;1.50;;;9.30;99.90;;;;;;5034532;28;20172;-70
2023/04/14 05:53:47;;;;;;;1.53;1.30;;;9.90;99.90;;;;;;5034465;28;20446;-70
2023/04/14 05:56:13;;;;;;;2.00;1.57;;;10.20;99.90;;;;;;5034462;28;20628;-70
2023/04/14 05:58:38;;;;;;;5.27;1.43;;;10.50;99.90;;;;;;5034162;28;20653;-69
2023/04/14 06:01:05;;;;;;;4.70;1.80;;;11.20;99.90;;;;;;5034251;28;20167;-70
2023/04/14 06:03:30;;;;;;;3.27;2.10;;;11.80;99.90;;;;;;5034379;28;20175;-70
2023/04/14 06:05:56;;;;;;;6.37;2.00;;;12.20;99.90;;;;;;5034449;28;21005;-71
2023/04/14 06:08:21;;;;;;;3.83;1.60;;;12.60;99.90;;;;;;5034009;28;20171;-70
2023/04/14 06:10:47;;;;;;;4.60;1.93;;;13.20;99.90;;;;;;5034170;28;20179;-70
2023/04/14 06:13:12;;;;;;;3.17;1.77;;;13.50;99.90;;;;;;5034031;28;20660;-71
2023/04/14 06:15:38;;;;;;;4.60;2.03;;;13.90;99.90;;;;;;5034015;28;20199;-70
2023/04/14 06:18:04;;;;;;;4.33;1.70;;;14.50;99.90;;;;;;5033723;28;20160;-70
2023/04/14 06:20:30;;;;;;;6.13;2.20;;;15.30;99.90;;;;;;5034024;28;20187;-71
2023/04/14 06:22:55;;;;;;;5.03;2.03;;;15.70;95.40;;;;;;5034001;28;20641;-71
2023/04/14 06:25:21;;;;;;;6.63;1.93;;;16.00;89.30;;;;;;5033865;28;20500;-70
2023/04/14 06:27:47;;;;;;;8.10;2.23;;;16.50;85.70;;;;;;5033639;28;20171;-71
2023/04/14 06:30:15;;;;;;;4.30;1.83;;;17.10;81.60;;;;;;5033895;28;20175;-71
2023/04/14 06:32:41;;;;;;;2.13;1.60;;;17.90;78.70;;;;;;5034151;28;20732;-70
2023/04/14 06:35:07;;;;;;;2.40;1.90;;;18.60;74.30;;;;;;5033698;28;20540;-70
2023/04/14 06:37:32;;;;;;;4.43;2.53;;;19.20;68.60;;;;;;5033377;28;20171;-71
2023/04/14 06:39:58;;;;;;;2.43;1.70;;;19.70;63.10;;;;;;5033749;28;20394;-70
2023/04/14 06:42:24;;;;;;;3.90;1.90;;;20.20;59.80;;;;;;5033550;28;20529;-70
2023/04/14 06:44:49;;;;;;;3.37;1.83;;;21.00;58.70;;;;;;5033556;28;20546;-71
2023/04/14 06:47:20;;;;;;;1.63;1.23;;;21.80;56.90;;;;;;5032904;28;20413;-71
2023/04/14 06:49:46;;;;;;;3.80;1.70;;;22.70;53.70;;;;;;5033272;28;20196;-72
2023/04/14 06:52:11;;;;;;;2.97;1.90;;;23.40;52.40;;;;;;5033440;28;20774;-71
2023/04/14 06:54:37;;;;;;;2.40;1.43;;;24.00;48.50;;;;;;5033284;28;20558;-68
2023/04/14 06:57:02;;;;;;;2.63;1.57;;;24.70;46.30;;;;;;5031699;28;20313;-69
2023/04/14 06:59:28;;;;;;;4.60;2.10;;;24.90;43.70;;;;;;5033073;28;20167;-70
2023/04/14 07:01:54;;;;;;;2.67;1.70;;;25.20;41.40;;;;;;5033396;28;20242;-69
2023/04/14 07:04:21;;;;;;;3.67;1.63;;;25.50;41.70;;;;;;5033107;28;20183;-69
2023/04/14 07:06:47;;;;;;;4.00;2.17;;;25.70;40.80;;;;;;5033217;28;20401;-69
2023/04/14 07:09:12;;;;;;;5.23;2.37;;;26.10;40.00;;;;;;5032758;28;20406;-70
2023/04/14 07:11:39;;;;;;;3.10;1.93;;;26.60;40.40;;;;;;5032914;28;20525;-71
2023/04/14 07:14:04;;;;;;;4.23;2.40;;;26.80;39.30;;;;;;5032683;28;20625;-71
2023/04/14 07:16:30;;;;;;;6.87;2.37;;;27.60;39.60;;;;;;5033039;28;20402;-71
2023/04/14 07:18:56;;;;;;;2.13;1.63;;;28.50;39.60;;;;;;5032654;28;20637;-71
2023/04/14 07:21:21;;;;;;;2.77;1.60;;;28.80;37.00;;;;;;5032942;28;20163;-71
2023/04/14 07:23:46;;;;;;;3.33;1.87;;;28.90;36.50;;;;;;5032784;28;20528;-71
2023/04/14 07:26:12;;;;;;;5.40;1.90;;;29.80;36.10;;;;;;5032860;28;20645;-70
2023/04/14 07:28:38;;;;;;;2.90;1.93;;;30.10;34.80;;;;;;5032466;28;20164;-71
2023/04/14 07:31:10;;;;;;;4.47;2.10;;;30.30;34.20;;;;;;5031362;28;20167;-72
2023/04/14 07:33:36;;;;;;;5.50;2.33;;;30.70;34.90;;;;;;5031089;28;20167;-71
2023/04/14 07:36:06;;;;;;;4.70;2.27;;;31.30;33.60;;;;;;5032611;28;20414;-71
2023/04/14 07:38:32;;;;;;;2.50;2.00;;;32.10;33.80;;;;;;5032509;28;20160;-71
2023/04/14 07:41:00;;;;;;;2.87;2.13;;;32.90;33.10;;;;;;5032503;28;20541;-71
2023/04/14 07:43:26;;;;;;;2.70;1.87;;;33.30;31.50;;;;;;5032549;28;20650;-71
2023/04/14 07:45:51;;;;;;;6.50;2.40;;;33.30;30.80;;;;;;5032029;28;20957;-72
2023/04/14 07:48:20;;;;;;;7.13;3.23;;;33.90;30.60;;;;;;5032180;28;20402;-72
2023/04/14 07:50:47;;;;;;;3.10;1.93;;;34.70;31.00;;;;;;5032467;28;20671;-71
2023/04/14 07:53:12;;;;;;;2.80;2.10;;;35.20;30.00;;;;;;5032396;28;20406;-72
2023/04/14 07:55:38;;;;;;;10.70;3.80;;;35.80;29.90;;;;;;5031841;28;20458;-71
2023/04/14 07:58:03;;;;;;;2.97;2.77;;;36.20;28.70;;;;;;5032058;28;20159;-70
2023/04/14 08:00:29;;;;;;;3.33;2.53;;;36.40;28.20;;;;;;5031825;28;20183;-72
2023/04/14 08:02:54;;;;;;;3.87;2.80;;;36.20;27.10;;;;;;5032266;28;20246;-70
2023/04/14 08:05:20;;;;;;;5.03;2.40;;;36.40;28.30;;;;;;5032193;28;20544;-70
2023/04/14 08:07:46;;;;;;;3.53;2.00;;;36.60;28.50;;;;;;5031716;28;20184;-70
2023/04/14 08:10:12;;;;;;;3.43;2.50;;;36.60;27.00;;;;;;5032145;28;20225;-70
2023/04/14 08:12:37;;;;;;;5.50;2.23;;;35.90;27.00;;;;;;5032032;28;20927;-71
2023/04/14 08:15:03;;;;;;;4.83;2.93;;;35.40;26.40;;;;;;5032018;28;20195;-70
2023/04/14 08:17:29;;;;;;;2.57;2.17;;;34.80;26.10;;;;;;5031778;28;20171;-70
2023/04/14 08:19:54;;;;;;;6.00;3.50;;;34.10;26.70;;;;;;5032099;28;20172;-71
2023/04/14 08:22:20;;;;;;;6.63;2.53;;;33.80;26.50;;;;;;5030903;28;20258;-70
2023/04/14 08:24:47;;;;;;;4.23;3.90;;;33.80;27.40;;;;;;5031814;28;20668;-71
2023/04/14 08:27:12;;;;;;;3.90;2.50;;;33.20;26.90;;;;;;5031679;28;20167;-70
2023/04/14 08:29:38;;;;;;;5.43;2.10;;;33.60;27.10;;;;;;5031836;28;20402;-70
2023/04/14 08:32:04;;;;;;;5.33;2.60;;;33.10;26.90;;;;;;5031920;28;20663;-71
2023/04/14 08:34:30;;;;;;;4.77;2.60;;;33.50;27.20;;;;;;5031829;28;20199;-71
2023/04/14 08:36:55;;;;;;;3.47;2.17;;;34.10;26.70;;;;;;5031494;28;20504;-71
2023/04/14 08:39:21;;;;;;;3.00;2.20;;;35.20;28.10;;;;;;5031784;28;20406;-72
2023/04/14 08:41:51;;;;;;;2.90;2.33;;;36.50;28.70;;;;;;5031700;28;20633;-71
2023/04/14 08:44:17;;;;;;;3.70;2.20;;;37.60;26.90;;;;;;5031648;28;20199;-71
2023/04/14 08:46:44;;;;;;;4.20;2.00;;;38.00;25.90;;;;;;5031583;28;20760;-72
2023/04/14 08:49:14;;;;;;;5.10;1.70;;;38.00;24.70;;;;;;5031482;28;20274;-72
2023/04/14 08:51:44;;;;;;;5.63;2.77;;;37.90;25.60;;;;;;5031684;28;20397;-72
2023/04/14 08:54:11;;;;;;;3.33;2.17;;;38.60;25.30;;;;;;5031612;28;20770;-73
2023/04/14 08:56:39;;;;;;;2.90;2.10;;;39.10;25.10;;;;;;5031633;28;20456;-72
2023/04/14 08:59:10;;;;;;;8.27;2.87;;;39.50;24.80;;;;;;5031444;28;20907;-72
2023/04/14 09:01:36;;;;;;;4.03;3.00;;;39.90;23.90;;;;;;5031505;28;20387;-72
2023/04/14 09:04:03;;;;;;;4.93;2.07;;;39.60;23.00;;;;;;5031333;28;21042;-71
2023/04/14 09:06:29;;;;;;;4.97;2.10;;;39.40;22.30;;;;;;5031530;28;20403;-72
2023/04/14 09:08:55;;;;;;;5.27;2.30;;;39.20;22.90;;;;;;5031282;28;20417;-72
2023/04/14 09:11:22;;;;;;;3.23;2.40;;;38.70;22.80;;;;;;5031519;28;20395;-72
2023/04/14 09:13:48;;;;;;;3.97;2.00;;;38.50;23.80;;;;;;5033995;28;20188;-72
2023/04/14 09:16:15;;;;;;;3.00;1.90;;;38.80;23.20;;;;;;5035211;28;20406;-71
2023/04/14 09:18:41;;;;;;;4.13;2.23;;;38.20;22.60;;;;;;5035007;28;20398;-72
2023/04/14 09:21:06;;;;;;;5.00;2.50;;;38.50;24.50;;;;;;5035183;28;20548;-72
2023/04/14 09:23:32;;;;;;;2.80;2.50;;;38.80;23.80;;;;;;5035100;28;20199;-71
2023/04/14 09:25:58;;;;;;;3.93;2.30;;;39.70;24.40;;;;;;5034741;28;20203;-72
2023/04/14 09:28:23;;;;;;;5.70;2.40;;;39.70;23.30;;;;;;5034749;28;20507;-72
2023/04/14 09:30:49;;;;;;;2.93;2.20;;;38.90;23.10;;;;;;5035018;28;20167;-72
2023/04/14 09:33:20;;;;;;;4.27;2.13;;;38.60;22.70;;;;;;5033641;28;20172;-71
2023/04/14 09:35:50;;;;;;;3.27;2.00;;;38.20;22.30;;;;;;5034971;28;20188;-71
2023/04/14 09:38:30;;;;;;;2.67;2.00;;;37.80;23.30;;;;;;5033375;28;20414;-71
2023/04/14 09:40:56;;;;;;;3.33;2.03;;;37.50;23.00;;;;;;5034903;28;20424;-71
2023/04/14 09:43:25;;;;;;;3.13;2.37;;;38.00;24.40;;;;;;5034761;28;20497;-71
2023/04/14 09:45:52;;;;;;;2.83;2.13;;;38.50;23.20;;;;;;5034537;28;20206;-71
2023/04/14 09:48:19;;;;;;;4.13;1.90;;;38.00;22.70;;;;;;5034453;28;20473;-72
2023/04/14 09:51:12;;;;;;;3.50;1.70;;;38.30;23.50;;;;;;5034648;28;20399;-72
2023/04/14 09:53:39;;;;;;;8.07;2.40;;;38.30;23.10;;;;;;5033220;28;20501;-72
2023/04/14 09:56:14;;;;;;;4.70;2.33;;;39.40;24.30;;;;;;5033355;28;20780;-71
2023/04/14 09:58:42;;;;;;;4.27;2.20;;;39.20;23.60;;;;;;5034201;28;20390;-72
2023/04/14 10:01:16;;;;;;;3.00;2.40;;;38.40;22.80;;;;;;5034611;28;20410;-72
2023/04/14 10:03:48;;;;;;;4.97;2.23;;;38.50;23.40;;;;;;5034214;28;20406;-72
2023/04/14 10:06:18;;;;;;;4.03;2.17;;;38.90;23.70;;;;;;5034403;28;20395;-72
2023/04/14 10:08:47;;;;;;;2.90;1.83;;;39.10;23.30;;;;;;5033638;28;20398;-72
2023/04/14 10:11:23;;;;;;;3.63;2.37;;;39.00;22.90;;;;;;5034243;28;20403;-72
2023/04/14 10:13:56;;;;;;;6.97;2.37;;;39.40;23.00;;;;;;5032694;28;20958;-71
2023/04/14 10:16:23;;;;;;;4.47;2.27;;;39.30;22.80;;;;;;5034150;28;20398;-72
2023/04/14 10:18:50;;;;;;;4.00;1.80;;;39.30;22.60;;;;;;5033832;28;20489;-72
2023/04/14 10:21:16;;;;;;;2.33;1.93;;;39.20;22.70;;;;;;5034006;28;20402;-72
2023/04/14 10:23:43;;;;;;;2.30;2.10;;;39.30;22.80;;;;;;5033376;28;20399;-72
2023/04/14 10:26:10;;;;;;;4.20;2.03;;;39.10;21.90;;;;;;5033947;28;20254;-71
2023/04/14 10:28:38;;;;;;;2.70;2.13;;;39.20;22.30;;;;;;5033547;28;20405;-71
2023/04/14 10:31:07;;;;;;;3.07;1.60;;;39.40;22.50;;;;;;5032846;28;20480;-71
2023/04/14 10:33:36;;;;;;;2.70;2.37;;;39.80;22.70;;;;;;5033808;28;20409;-71
2023/04/14 10:36:03;;;;;;;3.17;1.80;;;39.60;22.30;;;;;;5033750;28;20460;-71
2023/04/14 10:38:41;;;;;;;2.53;2.00;;;40.80;22.90;;;;;;5033460;28;20373;-71
2023/04/14 10:41:07;;;;;;;2.90;2.10;;;41.20;21.60;;;;;;5033758;28;20429;-71
2023/04/14 10:43:35;;;;;;;2.87;1.73;;;41.20;20.90;;;;;;5033468;28;20417;-71
2023/04/14 10:46:02;;;;;;;3.83;1.73;;;41.40;21.50;;;;;;5033414;28;20975;-72
2023/04/14 10:48:33;;;;;;;2.13;1.67;;;40.80;21.20;;;;;;5033281;28;20385;-71
2023/04/14 10:51:01;;;;;;;1.70;1.60;;;41.50;22.10;;;;;;5033527;28;20468;-71
2023/04/14 10:53:44;;;;;;;2.43;1.90;;;41.50;21.70;;;;;;5033445;28;20735;-71
2023/04/14 10:56:10;;;;;;;2.43;2.00;;;40.50;21.30;;;;;;5033511;28;20773;-71
2023/04/14 10:58:36;;;;;;;4.73;2.53;;;40.70;21.70;;;;;;5032942;28;20377;-71
2023/04/14 11:01:22;;;;;;;2.57;1.73;;;41.90;22.60;;;;;;5033299;28;20160;-74
2023/04/14 11:03:48;;;;;;;3.90;2.30;;;43.40;21.90;;;;;;5033107;28;20919;-72
2023/04/14 11:06:45;;;;;;;5.07;2.37;;;43.40;20.40;;;;;;5033206;28;20381;-71
2023/04/14 11:09:29;;;;;;;3.30;2.23;;;41.00;20.70;;;;;;5032846;28;20589;-71
2023/04/14 11:11:58;;;;;;;6.43;2.00;;;39.90;21.60;;;;;;5032757;28;20403;-70
2023/04/14 11:14:29;;;;;;;4.33;1.80;;;38.00;21.80;;;;;;5032794;28;20477;-70
2023/04/14 11:17:03;;;;;;;2.40;1.60;;;36.20;22.30;;;;;;5032708;28;20445;-70
2023/04/14 11:19:29;;;;;;;3.00;1.67;;;34.40;22.30;;;;;;5033029;28;20405;-70
2023/04/14 11:21:54;;;;;;;4.60;2.40;;;31.70;22.80;;;;;;5031695;28;20530;-70
2023/04/14 11:24:21;;;;;;;4.73;1.67;;;29.60;24.50;;;;;;5032819;28;20925;-71
2023/04/14 11:26:47;;;;;;;2.97;1.77;;;29.50;26.50;;;;;;5032746;28;20167;-70
2023/04/14 11:29:12;;;;;;;2.70;1.70;;;31.40;27.30;;;;;;5032347;28;20502;-70
2023/04/14 11:31:38;;;;;;;4.57;1.70;;;31.80;25.20;;;;;;5032757;28;20167;-71
2023/04/14 11:34:07;;;;;;;2.63;1.53;;;31.70;25.10;;;;;;5032581;28;20195;-72
2023/04/14 11:36:35;;;;;;;2.47;1.70;;;32.90;25.40;;;;;;5031950;28;20181;-71
2023/04/14 11:39:02;;;;;;;3.23;1.60;;;32.50;23.70;;;;;;5032425;28;21168;-71
2023/04/14 11:41:28;;;;;;;4.03;1.43;;;31.00;24.50;;;;;;5032532;28;20471;-71
2023/04/14 11:43:54;;;;;;;1.83;1.50;;;29.70;25.70;;;;;;5032401;28;20434;-70
2023/04/14 11:46:20;;;;;;;2.80;1.40;;;30.10;26.90;;;;;;5032531;28;20419;-71
2023/04/14 11:48:46;;;;;;;2.00;1.50;;;31.80;26.50;;;;;;5032061;28;20175;-71
2023/04/14 11:51:12;;;;;;;2.80;2.00;;;34.10;25.80;;;;;;5032479;28;20406;-71
2023/04/14 11:53:39;;;;;;;4.67;2.00;;;36.10;24.50;;;;;;5032325;28;20164;-70
2023/04/14 11:56:07;;;;;;;3.93;1.87;;;35.80;23.20;;;;;;5031299;28;20783;-71
2023/04/14 11:58:33;;;;;;;3.77;2.20;;;35.70;22.80;;;;;;5030836;28;20509;-71
2023/04/14 12:00:59;;;;;;;2.27;1.90;;;36.70;23.40;;;;;;5032334;28;20493;-71
2023/04/14 12:03:27;;;;;;;2.10;1.90;;;38.20;23.10;;;;;;5032142;28;20373;-71
2023/04/14 12:06:00;;;;;;;4.67;1.90;;;39.60;22.40;;;;;;5031776;28;20469;-71
2023/04/14 12:08:28;;;;;;;3.80;1.87;;;39.10;21.20;;;;;;5031947;28;20930;-72
2023/04/14 12:10:55;;;;;;;3.33;1.77;;;38.80;21.50;;;;;;5032125;28;20385;-72
2023/04/14 12:13:20;;;;;;;4.10;1.80;;;39.60;21.50;;;;;;5031974;28;20422;-71
2023/04/14 12:15:46;;;;;;;3.37;2.17;;;40.90;21.60;;;;;;5031894;28;20430;-72
2023/04/14 12:18:14;;;;;;;4.33;2.00;;;41.90;21.20;;;;;;5031829;28;20222;-72
2023/04/14 12:20:52;;;;;;;2.43;1.77;;;42.70;19.70;;;;;;5031673;28;20179;-72
2023/04/14 12:23:18;;;;;;;2.77;1.60;;;43.10;19.30;;;;;;5032028;28;20373;-70
2023/04/14 12:25:44;;;;;;;3.40;1.67;;;43.30;19.60;;;;;;5031767;28;20460;-71
2023/04/14 12:28:15;;;;;;;2.83;1.90;;;43.20;19.40;;;;;;5031643;28;20629;-70
2023/04/14 12:30:53;;;;;;;4.20;1.80;;;43.80;19.90;;;;;;5031879;28;20199;-72
2023/04/14 12:33:22;;;;;;;3.80;2.00;;;44.30;19.60;;;;;;5031886;28;20436;-72
2023/04/14 12:35:49;;;;;;;2.13;1.90;;;44.30;19.20;;;;;;5031800;28;20464;-70
2023/04/14 12:38:15;;;;;;;2.93;2.30;;;42.10;18.70;;;;;;5031670;28;20385;-69
2023/04/14 12:40:44;;;;;;;3.20;1.97;;;40.40;19.70;;;;;;5031791;28;20393;-70
2023/04/14 12:43:10;;;;;;;2.33;1.83;;;41.10;20.70;;;;;;5031777;28;20171;-71
2023/04/14 12:45:43;;;;;;;2.00;1.77;;;42.30;19.80;;;;;;5031389;28;20432;-70
2023/04/14 12:48:11;;;;;;;2.10;1.90;;;42.80;18.60;;;;;;5034964;28;20402;-71
2023/04/14 12:50:36;;;;;;;1.70;1.20;;;41.10;18.70;;;;;;5035779;28;20801;-70
2023/04/14 12:53:24;;;;;;;2.33;1.50;;;40.00;19.20;;;;;;5035662;28;20493;-70
2023/04/14 12:56:22;;;;;;;2.17;1.40;;;38.90;19.30;;;;;;5035616;28;20673;-70